createdAt,value
2018-12-29T00:02:57.689Z,17.63
2018-12-29T00:07:05.856Z,20.40
2018-12-29T00:11:12.286Z,16.17
2018-12-29T00:15:19.717Z,17.27
2018-12-29T00:19:26.144Z,16.90
2018-12-29T00:23:33.601Z,15.17
2018-12-29T00:27:40.117Z,16.17
2018-12-29T00:31:48.769Z,17.27
2018-12-29T00:35:55.027Z,15.43
2018-12-29T00:40:02.088Z,15.17
2018-12-29T00:44:08.495Z,16.87
2018-12-29T00:48:16.049Z,16.10
2018-12-29T00:52:22.323Z,14.73
2018-12-29T00:56:28.991Z,13.67
2018-12-29T01:00:35.285Z,13.23
2018-12-29T01:04:44.341Z,13.33
2018-12-29T01:08:50.572Z,11.33
2018-12-29T01:12:59.712Z,13.07
2018-12-29T01:17:09.107Z,12.67
2018-12-29T01:21:16.156Z,15.10
2018-12-29T01:25:23.303Z,12.13
2018-12-29T01:29:31.097Z,12.63
2018-12-29T01:33:37.452Z,13.37
2018-12-29T01:37:45.315Z,13.83
2018-12-29T01:41:51.768Z,12.50
2018-12-29T01:45:58.642Z,12.23
2018-12-29T01:50:05.342Z,13.83
2018-12-29T01:54:15.746Z,14.77
2018-12-29T01:58:22.068Z,13.13
2018-12-29T02:02:30.157Z,14.03
2018-12-29T02:06:36.457Z,13.10
2018-12-29T02:10:43.812Z,13.07
2018-12-29T02:14:50.101Z,13.10
2018-12-29T02:18:56.555Z,12.83
2018-12-29T02:23:03.940Z,12.00
2018-12-29T02:27:11.611Z,12.83
2018-12-29T02:31:18.160Z,11.27
2018-12-29T02:35:24.807Z,11.07
2018-12-29T02:39:31.089Z,11.10
2018-12-29T02:43:38.233Z,11.73
2018-12-29T02:47:44.499Z,9.93
2018-12-29T02:51:51.141Z,10.13
2018-12-29T02:55:57.427Z,10.70
2018-12-29T03:00:05.120Z,6.90
2018-12-29T03:04:11.924Z,9.87
2018-12-29T03:08:18.573Z,8.47
2018-12-29T03:12:24.777Z,10.03
2018-12-29T03:16:32.261Z,9.43
2018-12-29T03:20:39.675Z,8.20
2018-12-29T03:24:46.305Z,7.83
2018-12-29T03:28:55.642Z,6.77
2018-12-29T03:33:05.169Z,6.90
2018-12-29T03:37:11.836Z,7.97
2018-12-29T03:41:18.563Z,6.77
2018-12-29T03:45:24.844Z,6.23
2018-12-29T03:49:32.894Z,6.17
2018-12-29T03:53:39.353Z,7.50
2018-12-29T03:57:45.992Z,6.07
2018-12-29T04:06:20.208Z,7.60
2018-12-29T04:10:26.894Z,6.37
2018-12-29T04:14:33.507Z,7.43
2018-12-29T04:18:40.732Z,8.13
2018-12-29T04:22:47.353Z,6.93
2018-12-29T04:26:53.940Z,7.40
2018-12-29T04:31:01.875Z,8.83
2018-12-29T04:35:10.062Z,8.37
2018-12-29T04:39:21.918Z,7.77
2018-12-29T04:43:28.656Z,8.33
2018-12-29T04:47:35.645Z,8.07
2018-12-29T04:51:42.825Z,7.57
2018-12-29T04:55:51.120Z,8.07
2018-12-29T05:00:00.899Z,6.77
2018-12-29T05:04:07.486Z,7.10
2018-12-29T05:08:13.926Z,7.70
2018-12-29T05:12:20.746Z,7.73
2018-12-29T05:16:27.155Z,6.87
2018-12-29T05:20:33.758Z,6.97
2018-12-29T05:24:40.275Z,8.07
2018-12-29T05:28:50.823Z,7.13
2018-12-29T05:33:01.753Z,7.50
2018-12-29T05:37:08.505Z,7.93
2018-12-29T05:41:14.926Z,7.03
2018-12-29T05:45:42.973Z,7.33
2018-12-29T05:49:49.721Z,7.90
2018-12-29T05:53:59.723Z,7.27
2018-12-29T05:58:07.719Z,6.70
2018-12-29T06:02:15.081Z,7.40
2018-12-29T06:06:42.684Z,6.40
2018-12-29T06:10:49.272Z,7.00
2018-12-29T06:14:55.583Z,6.30
2018-12-29T06:19:03.048Z,6.57
2018-12-29T06:23:09.458Z,6.43
2018-12-29T06:27:16.260Z,6.97
2018-12-29T06:31:26.299Z,7.20
2018-12-29T06:35:34.853Z,7.30
2018-12-29T06:39:42.502Z,6.90
2018-12-29T06:43:49.696Z,6.03
2018-12-29T06:47:56.367Z,7.40
2018-12-29T06:52:07.886Z,7.90
2018-12-29T06:56:14.831Z,6.83
2018-12-29T07:00:24.409Z,6.40
2018-12-29T07:04:33.729Z,7.17
2018-12-29T07:08:42.810Z,5.63
2018-12-29T07:12:51.348Z,5.80
2018-12-29T07:16:59.311Z,7.53
2018-12-29T07:21:06.037Z,6.80
2018-12-29T07:25:16.956Z,7.00
2018-12-29T07:29:23.350Z,5.97
2018-12-29T07:33:30.579Z,6.33
2018-12-29T07:37:39.156Z,6.97
2018-12-29T07:41:46.789Z,7.30
2018-12-29T07:45:55.891Z,7.80
2018-12-29T07:50:07.230Z,7.43
2018-12-29T07:54:15.227Z,6.60
2018-12-29T07:58:22.977Z,7.37
2018-12-29T08:02:31.442Z,6.37
2018-12-29T08:06:43.456Z,6.50
2018-12-29T08:10:50.342Z,6.57
2018-12-29T08:15:21.363Z,6.60
2018-12-29T08:19:27.758Z,8.00
2018-12-29T08:23:47.286Z,7.23
2018-12-29T08:27:58.613Z,7.77
2018-12-29T08:32:06.026Z,7.20
2018-12-29T08:36:14.311Z,8.07
2018-12-29T08:40:23.663Z,8.00
2018-12-29T08:44:30.342Z,9.03
2018-12-29T08:48:39.772Z,9.07
2018-12-29T08:52:46.253Z,9.70
2018-12-29T08:56:54.216Z,9.17
2018-12-29T09:01:00.788Z,9.67
2018-12-29T09:05:11.152Z,10.00
2018-12-29T09:09:18.155Z,10.50
2018-12-29T09:13:25.036Z,10.63
2018-12-29T09:17:58.504Z,11.23
2018-12-29T09:22:10.065Z,10.20
2018-12-29T09:26:16.567Z,10.00
2018-12-29T09:30:23.140Z,11.90
2018-12-29T09:34:29.948Z,10.23
2018-12-29T09:38:38.818Z,10.93
2018-12-29T09:42:46.596Z,11.97
2018-12-29T09:46:58.868Z,11.50
2018-12-29T09:51:05.378Z,11.73
2018-12-29T09:55:38.856Z,11.10
2018-12-29T09:59:45.782Z,10.20
2018-12-29T10:03:56.437Z,10.03
2018-12-29T10:08:04.155Z,11.23
2018-12-29T10:12:15.232Z,12.03
2018-12-29T10:16:22.302Z,12.33
2018-12-29T10:20:30.865Z,12.07
2018-12-29T10:24:37.983Z,12.73
2018-12-29T10:28:45.410Z,13.60
2018-12-29T10:33:14.593Z,14.90
2018-12-29T10:37:21.680Z,15.20
2018-12-29T10:41:37.557Z,16.13
2018-12-29T10:45:48.281Z,15.10
2018-12-29T10:49:57.093Z,15.70
2018-12-29T10:54:06.463Z,12.13
2018-12-29T10:58:14.434Z,14.83
2018-12-29T11:02:21.919Z,13.73
2018-12-29T11:06:32.225Z,12.33
2018-12-29T11:10:39.504Z,11.97
2018-12-29T11:14:46.140Z,11.80
2018-12-29T11:18:56.468Z,12.13
2018-12-29T11:23:03.372Z,12.10
2018-12-29T11:27:13.299Z,13.43
2018-12-29T11:31:20.776Z,11.70
2018-12-29T11:35:31.427Z,10.07
2018-12-29T11:39:38.238Z,11.17
2018-12-29T11:47:57.711Z,10.07
2018-12-29T11:52:11.833Z,9.17
2018-12-29T11:56:18.734Z,10.50
2018-12-29T12:04:36.249Z,11.00
2018-12-29T12:08:48.887Z,10.93
2018-12-29T12:12:54.898Z,10.33
2018-12-29T12:17:02.372Z,11.73
2018-12-29T12:21:10.128Z,10.73
2018-12-29T12:25:25.625Z,9.67
2018-12-29T12:29:33.322Z,10.33
2018-12-29T12:33:40.468Z,10.20
2018-12-29T12:41:57.116Z,10.43
2018-12-29T12:46:03.587Z,11.67
2018-12-29T12:50:14.717Z,11.47
2018-12-29T12:54:21.423Z,12.37
2018-12-29T12:58:31.221Z,13.90
2018-12-29T13:02:40.090Z,12.80
2018-12-29T13:06:48.501Z,13.50
2018-12-29T13:10:55.898Z,14.83
2018-12-29T13:15:03.922Z,14.90
2018-12-29T13:19:10.865Z,15.20
2018-12-29T13:23:18.438Z,16.20
2018-12-29T13:27:25.530Z,15.20
2018-12-29T13:31:55.241Z,14.37
2018-12-29T13:36:02.691Z,15.03
2018-12-29T13:40:10.504Z,16.10
2018-12-29T13:44:17.131Z,16.33
2018-12-29T13:48:25.383Z,14.93
2018-12-29T13:52:55.095Z,16.30
2018-12-29T13:57:01.936Z,17.60
2018-12-29T14:01:09.359Z,17.07
2018-12-29T14:05:17.102Z,16.03
2018-12-29T14:09:23.637Z,16.60
2018-12-29T14:13:32.946Z,15.20
2018-12-29T14:17:41.108Z,15.90
2018-12-29T14:21:49.805Z,16.00
2018-12-29T14:25:57.923Z,15.23
2018-12-29T14:30:04.790Z,15.20
2018-12-29T14:34:13.639Z,15.80
2018-12-29T14:38:20.646Z,16.30
2018-12-29T14:42:30.302Z,16.43
2018-12-29T14:46:41.464Z,17.47
2018-12-29T14:50:48.181Z,19.53
2018-12-29T14:54:56.113Z,19.43
2018-12-29T14:59:04.596Z,21.77
2018-12-29T15:03:11.804Z,23.23
2018-12-29T15:07:21.180Z,24.83
2018-12-29T15:11:27.872Z,25.97
2018-12-29T15:15:37.605Z,27.37
2018-12-29T15:19:47.075Z,28.90
2018-12-29T15:23:54.629Z,30.83
2018-12-29T15:28:04.854Z,30.60
2018-12-29T15:32:13.636Z,27.03
2018-12-29T15:36:26.302Z,24.20
2018-12-29T15:40:39.295Z,21.70
2018-12-29T15:44:48.805Z,22.40
2018-12-29T15:48:55.970Z,22.73
2018-12-29T15:53:04.262Z,23.00
2018-12-29T15:57:11.725Z,25.77
2018-12-29T16:01:20.303Z,25.80
2018-12-29T16:05:26.672Z,25.63
2018-12-29T16:09:34.470Z,26.57
2018-12-29T16:13:40.907Z,25.17
2018-12-29T16:17:47.669Z,26.30
2018-12-29T16:21:55.381Z,25.27
2018-12-29T16:26:12.801Z,24.50
2018-12-29T16:30:15.558Z,23.37
2018-12-29T16:34:26.801Z,23.80
2018-12-29T16:38:36.624Z,23.73
2018-12-29T16:42:48.461Z,21.63
2018-12-29T16:46:55.454Z,22.17
2018-12-29T16:51:03.702Z,22.47
2018-12-29T16:55:17.044Z,22.80
2018-12-29T16:59:25.214Z,22.60
2018-12-29T17:07:43.985Z,26.97
2018-12-29T17:11:52.538Z,25.80
2018-12-29T17:16:06.420Z,24.27
2018-12-29T17:20:15.215Z,24.90
2018-12-29T17:24:22.720Z,24.80
2018-12-29T17:28:30.556Z,25.43
2018-12-29T17:37:11.481Z,28.13
2018-12-29T17:41:20.373Z,27.17
2018-12-29T17:45:47.720Z,27.40
2018-12-29T17:49:56.759Z,29.77
2018-12-29T17:54:08.419Z,29.93
2018-12-29T17:58:18.320Z,27.30
2018-12-29T18:03:05.838Z,28.10
2018-12-29T18:07:12.853Z,28.50
2018-12-29T18:11:27.201Z,30.87
2018-12-29T18:15:34.109Z,30.80
2018-12-29T18:19:40.526Z,32.37
2018-12-29T18:24:07.524Z,30.20
2018-12-29T18:28:14.216Z,32.53
2018-12-29T18:32:21.575Z,32.53
2018-12-29T18:36:35.525Z,32.27
2018-12-29T18:40:44.741Z,30.73
2018-12-29T18:45:00.024Z,29.80
2018-12-29T18:49:08.864Z,28.90
2018-12-29T18:53:23.086Z,30.53
2018-12-29T19:02:21.783Z,30.17
2018-12-29T19:06:31.538Z,30.30
2018-12-29T19:10:39.731Z,30.90
2018-12-29T19:14:48.993Z,29.50
2018-12-29T19:18:55.435Z,30.27
2018-12-29T19:23:03.010Z,29.37
2018-12-29T19:27:09.828Z,30.47
2018-12-29T19:31:17.740Z,29.27
2018-12-29T19:35:24.357Z,28.57
2018-12-29T19:39:31.116Z,28.73
2018-12-29T19:43:38.446Z,27.20
2018-12-29T19:47:45.382Z,25.90
2018-12-29T19:51:53.787Z,26.67
2018-12-29T19:56:02.327Z,26.43
2018-12-29T20:00:11.255Z,25.87
2018-12-29T20:04:21.035Z,25.83
2018-12-29T20:08:27.940Z,27.90
2018-12-29T20:12:35.990Z,27.87
2018-12-29T20:16:49.192Z,27.20
2018-12-29T20:20:55.783Z,28.60
2018-12-29T20:25:04.960Z,29.53
2018-12-29T20:29:16.221Z,32.30
2018-12-29T20:33:47.716Z,32.73
2018-12-29T20:37:54.169Z,33.30
2018-12-29T20:42:02.202Z,34.57
2018-12-29T20:46:09.022Z,36.43
2018-12-29T20:50:20.065Z,35.87
2018-12-29T20:54:26.672Z,35.67
2018-12-29T20:58:33.862Z,32.23
2018-12-29T21:02:41.449Z,28.03
2018-12-29T21:06:51.534Z,28.90
2018-12-29T21:11:00.674Z,27.87
2018-12-29T21:15:11.910Z,25.33
2018-12-29T21:19:18.724Z,24.07
2018-12-29T21:23:28.554Z,23.53
2018-12-29T21:27:35.595Z,24.23
2018-12-29T21:31:45.134Z,24.00
2018-12-29T21:35:52.742Z,20.40
2018-12-29T21:40:01.679Z,22.30
2018-12-29T21:44:09.238Z,22.10
2018-12-29T21:48:16.460Z,21.73
2018-12-29T21:52:24.548Z,21.77
2018-12-29T21:56:33.154Z,20.90
2018-12-29T22:00:40.956Z,20.53
2018-12-29T22:04:47.994Z,20.87
2018-12-29T22:08:59.961Z,20.63
2018-12-29T22:13:15.141Z,22.83
2018-12-29T22:17:25.604Z,23.27
2018-12-29T22:21:35.201Z,24.00
2018-12-29T22:25:48.245Z,23.90
2018-12-29T22:30:04.242Z,23.07
2018-12-29T22:34:17.542Z,24.07
2018-12-29T22:38:57.153Z,25.20
2018-12-29T22:43:26.287Z,24.53
2018-12-29T22:47:38.180Z,24.07
2018-12-29T22:51:45.015Z,22.97
2018-12-29T22:55:54.977Z,26.47
2018-12-29T23:00:01.737Z,26.90
2018-12-29T23:04:11.008Z,26.13
2018-12-29T23:08:23.299Z,26.17
2018-12-29T23:12:38.937Z,25.30
2018-12-29T23:20:56.288Z,22.93
2018-12-29T23:25:05.303Z,25.20
2018-12-29T23:29:18.083Z,24.17
2018-12-29T23:33:25.324Z,22.60
2018-12-29T23:37:32.780Z,23.53
2018-12-29T23:41:40.430Z,21.07
2018-12-29T23:45:50.870Z,23.80
2018-12-29T23:49:57.309Z,26.47
2018-12-29T23:54:08.318Z,28.80
2018-12-29T23:58:16.583Z,29.87
